This is the latest recevied weather packets stored in our database for station/object KB1QVF. If no packets are shown the sender has not sent any weather packets the latest 10 day(s).
| Time | Temp. | Humidity | Pressure | Rain* | Wind** | Luminosity | Snow |
|---|---|---|---|---|---|---|---|
| 1777843928 | 10.56° C | 38% | 1009.9 hPa | 0 mm | - | 86 W/m² | - |
| 1777843625 | 10.56° C | 37% | 1009.7 hPa | 0 mm | - | 132 W/m² | - |
| 1777843323 | 10.56° C | 37% | 1009.4 hPa | 0 mm | - | 171 W/m² | - |
| 1777843020 | 10.56° C | 38% | 1009.6 hPa | 0 mm | - | 363 W/m² | - |
| 1777842715 | 10.56° C | 38% | 1009.4 hPa | 0 mm | - | 172 W/m² | - |
| 1777842412 | 10.56° C | 39% | 1009.2 hPa | 0 mm | - | 208 W/m² | - |
| 1777842109 | 10.56° C | 37% | 1009.3 hPa | 0 mm | - | 198 W/m² | - |
| 1777841804 | 10.56° C | 38% | 1009.4 hPa | 0 mm | - | 202 W/m² | - |
| 1777841501 | 10° C | 38% | 1009.2 hPa | 0 mm | - | 175 W/m² | - |
| 1777841197 | 10.56° C | 37% | 1009.2 hPa | 0 mm | - | 193 W/m² | - |
| 1777840895 | 10.56° C | 37% | 1008.9 hPa | 0 mm | - | 189 W/m² | - |
| 1777840592 | 10.56° C | 39% | 1009.2 hPa | 0 mm | - | 191 W/m² | - |
| 1777840290 | 10.56° C | 38% | 1009.4 hPa | 0 mm | - | 225 W/m² | - |
| 1777839987 | 10.56° C | 39% | 1009.1 hPa | 0 mm | - | 250 W/m² | - |
| 1777839685 | 10.56° C | 39% | 1009.2 hPa | 0 mm | - | 217 W/m² | - |
| 1777839383 | 10.56° C | 38% | 1008.7 hPa | 0 mm | - | 195 W/m² | - |
| 1777839079 | 10.56° C | 40% | 1008.8 hPa | 0 mm | - | 220 W/m² | - |
| 1777838776 | 10° C | 41% | 1008.9 hPa | 0 mm | - | 211 W/m² | - |
| 1777838472 | 10° C | 39% | 1009 hPa | 0 mm | - | 161 W/m² | - |
| 1777838169 | 10.56° C | 41% | 1008.7 hPa | 0 mm | - | 167 W/m² | - |
| 1777837867 | 11.11° C | 39% | 1008.8 hPa | 0 mm | - | 175 W/m² | - |
| 1777837564 | 11.11° C | 42% | 1008.8 hPa | 0 mm | - | 203 W/m² | - |
| 1777837264 | 10.56° C | 38% | 1008.8 hPa | 0 mm | - | 793 W/m² | - |
| 1777836961 | 10° C | 41% | 1009 hPa | 0 mm | - | 268 W/m² | - |
| 1777836656 | 10° C | 40% | 1008.9 hPa | 0 mm | - | 215 W/m² | - |
* Rain latest hour (hover to see other rain measurements)
** Current wind speed in m/s (hover to see current wind gust speed)